createdAt,value
2019-03-27T00:01:10.161Z,4.65
2019-03-27T00:03:42.056Z,6.20
2019-03-27T00:06:14.669Z,6.17
2019-03-27T00:08:46.488Z,6.57
2019-03-27T00:11:18.396Z,5.90
2019-03-27T00:13:50.192Z,5.50
2019-03-27T00:16:22.403Z,4.83
2019-03-27T00:18:54.314Z,6.60
2019-03-27T00:21:26.365Z,4.90
2019-03-27T00:23:58.256Z,3.23
2019-03-27T00:26:30.045Z,4.50
2019-03-27T00:29:01.919Z,4.93
2019-03-27T00:31:34.015Z,6.42
2019-03-27T00:34:06.356Z,5.07
2019-03-27T00:36:38.228Z,5.60
2019-03-27T00:39:10.440Z,4.10
2019-03-27T00:41:42.297Z,8.27
2019-03-27T00:44:14.181Z,4.90
2019-03-27T00:46:45.979Z,3.43
2019-03-27T00:49:17.783Z,5.37
2019-03-27T00:51:50.009Z,4.37
2019-03-27T00:54:21.805Z,3.98
2019-03-27T00:56:54.170Z,3.97
2019-03-27T00:59:26.578Z,2.67
2019-03-27T01:01:58.369Z,4.37
2019-03-27T01:04:30.546Z,3.20
2019-03-27T01:07:02.451Z,5.00
2019-03-27T01:09:34.277Z,3.33
2019-03-27T01:12:06.367Z,3.53
2019-03-27T01:14:38.206Z,3.73
2019-03-27T01:17:10.029Z,2.37
2019-03-27T01:19:42.806Z,4.17
2019-03-27T01:22:14.589Z,4.10
2019-03-27T01:24:46.800Z,4.63
2019-03-27T01:27:18.934Z,3.13
2019-03-27T01:29:50.764Z,6.47
2019-03-27T01:32:22.553Z,4.93
2019-03-27T01:34:55.955Z,5.12
2019-03-27T01:37:27.754Z,3.63
2019-03-27T01:39:59.563Z,6.17
2019-03-27T01:42:31.372Z,5.73
2019-03-27T01:45:03.675Z,4.07
2019-03-27T01:47:35.483Z,8.73
2019-03-27T01:50:07.759Z,6.33
2019-03-27T01:52:39.633Z,4.40
2019-03-27T01:55:11.581Z,3.52
2019-03-27T01:57:44.065Z,5.20
2019-03-27T02:00:16.107Z,6.28
2019-03-27T02:02:47.898Z,2.52
2019-03-27T02:05:19.724Z,4.17
2019-03-27T02:07:51.595Z,4.40
2019-03-27T02:10:23.559Z,3.10
2019-03-27T02:12:56.310Z,3.75
2019-03-27T02:15:28.107Z,7.90
2019-03-27T02:17:59.972Z,3.98
2019-03-27T02:20:32.022Z,2.77
2019-03-27T02:23:03.831Z,3.95
2019-03-27T02:25:35.630Z,1.90
2019-03-27T02:28:07.829Z,3.00
2019-03-27T02:30:41.393Z,2.40
2019-03-27T02:33:13.272Z,4.37
2019-03-27T02:35:45.107Z,4.50
2019-03-27T02:38:17.087Z,2.80
2019-03-27T02:40:49.139Z,5.83
2019-03-27T02:43:21.362Z,4.70
2019-03-27T02:45:53.177Z,3.98
2019-03-27T02:48:26.895Z,7.28
2019-03-27T02:50:58.723Z,2.62
2019-03-27T02:53:30.766Z,6.00
2019-03-27T02:56:03.080Z,4.73
2019-03-27T02:58:35.188Z,5.13
2019-03-27T03:01:08.024Z,3.75
2019-03-27T03:03:39.800Z,4.37
2019-03-27T03:06:12.228Z,3.07
2019-03-27T03:08:44.065Z,6.62
2019-03-27T03:11:16.476Z,7.17
2019-03-27T03:13:48.325Z,3.95
2019-03-27T03:16:20.112Z,6.47
2019-03-27T03:18:52.040Z,6.50
2019-03-27T03:21:24.111Z,4.57
2019-03-27T03:23:56.170Z,4.65
2019-03-27T03:26:27.956Z,2.77
2019-03-27T03:28:59.737Z,4.80
2019-03-27T03:31:31.844Z,5.20
2019-03-27T03:34:04.140Z,4.78
2019-03-27T03:36:36.768Z,4.73
2019-03-27T03:39:09.620Z,5.78
2019-03-27T03:41:41.461Z,4.20
2019-03-27T03:44:13.232Z,5.90
2019-03-27T03:46:58.971Z,5.47
2019-03-27T03:49:19.231Z,2.70
2019-03-27T03:51:51.144Z,4.40
2019-03-27T03:54:23.601Z,5.33
2019-03-27T03:56:57.921Z,3.74
2019-03-27T03:59:31.606Z,6.03
2019-03-27T04:02:05.613Z,5.03
2019-03-27T04:04:39.453Z,7.57
2019-03-27T04:07:11.527Z,3.90
2019-03-27T04:09:43.884Z,9.93
2019-03-27T04:12:16.077Z,6.43
2019-03-27T04:14:47.857Z,5.10
2019-03-27T04:17:19.664Z,4.83
2019-03-27T04:19:51.672Z,9.93
2019-03-27T04:22:23.466Z,7.47
2019-03-27T04:27:26.625Z,6.63
2019-03-27T04:29:58.496Z,5.08
2019-03-27T04:32:30.615Z,7.75
2019-03-27T04:35:02.521Z,5.50
2019-03-27T04:37:34.348Z,7.67
2019-03-27T04:40:06.937Z,6.27
2019-03-27T04:42:39.067Z,9.47
2019-03-27T04:45:11.236Z,9.67
2019-03-27T04:47:43.227Z,12.15
2019-03-27T04:50:15.637Z,10.33
2019-03-27T04:52:47.773Z,7.40
2019-03-27T04:55:19.621Z,11.67
2019-03-27T04:57:51.429Z,8.40
2019-03-27T05:00:23.899Z,8.07
2019-03-27T05:02:56.584Z,11.28
2019-03-27T05:05:28.367Z,10.23
2019-03-27T05:08:00.381Z,9.53
2019-03-27T05:10:32.579Z,11.80
2019-03-27T05:13:04.559Z,5.70
2019-03-27T05:15:36.498Z,10.60
2019-03-27T05:18:08.287Z,8.93
2019-03-27T05:20:40.182Z,10.13
2019-03-27T05:23:12.281Z,10.13
2019-03-27T05:25:44.165Z,6.90
2019-03-27T05:28:15.990Z,9.63
2019-03-27T05:30:48.011Z,9.07
2019-03-27T05:33:19.860Z,5.97
2019-03-27T05:35:51.719Z,11.48
2019-03-27T05:38:23.483Z,9.13
2019-03-27T05:40:56.778Z,7.40
2019-03-27T05:43:28.614Z,7.63
2019-03-27T05:46:00.386Z,11.28
2019-03-27T05:48:32.149Z,6.93
2019-03-27T05:51:04.195Z,5.70
2019-03-27T05:53:36.053Z,7.07
2019-03-27T05:56:07.972Z,6.83
2019-03-27T05:58:39.933Z,9.97
2019-03-27T06:01:11.748Z,7.67
2019-03-27T06:03:44.853Z,9.15
2019-03-27T06:06:16.669Z,8.93
2019-03-27T06:08:48.428Z,9.20
2019-03-27T06:11:20.273Z,9.67
2019-03-27T06:13:52.126Z,8.33
2019-03-27T06:16:24.045Z,10.70
2019-03-27T06:18:56.924Z,8.45
2019-03-27T06:21:28.718Z,12.00
2019-03-27T06:24:00.578Z,8.03
2019-03-27T06:26:32.451Z,8.43
2019-03-27T06:29:04.290Z,7.33
2019-03-27T06:31:36.136Z,9.73
2019-03-27T06:34:07.979Z,5.83
2019-03-27T06:36:39.850Z,9.87
2019-03-27T06:39:11.809Z,10.75
2019-03-27T06:41:44.004Z,9.97
2019-03-27T06:44:15.804Z,10.53
2019-03-27T06:46:48.248Z,9.90
2019-03-27T06:49:20.162Z,6.27
2019-03-27T06:51:51.994Z,8.77
2019-03-27T06:54:23.739Z,8.50
2019-03-27T06:56:56.991Z,7.30
2019-03-27T06:59:28.759Z,8.57
2019-03-27T07:02:00.603Z,10.10
2019-03-27T07:04:32.436Z,10.07
2019-03-27T07:07:04.284Z,7.73
2019-03-27T07:09:36.270Z,7.07
2019-03-27T07:12:20.511Z,7.57
2019-03-27T07:14:42.166Z,7.93
2019-03-27T07:17:13.945Z,10.10
2019-03-27T07:19:45.929Z,9.73
2019-03-27T07:22:17.840Z,8.33
2019-03-27T07:24:49.639Z,7.63
2019-03-27T07:27:21.463Z,10.43
2019-03-27T07:29:53.233Z,7.58
2019-03-27T07:32:25.187Z,5.47
2019-03-27T07:34:57.115Z,8.15
2019-03-27T07:37:29.352Z,7.47
2019-03-27T07:40:02.175Z,9.60
2019-03-27T07:42:34.169Z,13.83
2019-03-27T07:45:07.438Z,8.63
2019-03-27T07:47:39.206Z,8.67
2019-03-27T07:50:11.932Z,8.03
2019-03-27T07:52:44.736Z,8.90
2019-03-27T07:55:19.699Z,7.30
2019-03-27T07:57:50.112Z,15.70
2019-03-27T08:00:24.230Z,10.53
2019-03-27T08:02:56.839Z,10.28
2019-03-27T08:05:28.785Z,5.93
2019-03-27T08:08:01.543Z,8.60
2019-03-27T08:10:33.398Z,6.13
2019-03-27T08:13:05.419Z,8.13
2019-03-27T08:15:40.461Z,9.53
2019-03-27T08:18:10.710Z,9.08
2019-03-27T08:20:42.600Z,13.77
2019-03-27T08:23:14.757Z,12.45
2019-03-27T08:25:46.589Z,13.23
2019-03-27T08:28:18.482Z,10.57
2019-03-27T08:30:50.357Z,8.20
2019-03-27T08:33:22.543Z,8.53
2019-03-27T08:35:54.334Z,8.73
2019-03-27T08:38:27.030Z,12.15
2019-03-27T08:40:58.792Z,7.60
2019-03-27T08:43:30.655Z,8.33
2019-03-27T08:46:03.112Z,12.43
2019-03-27T08:48:34.974Z,13.93
2019-03-27T08:51:07.092Z,9.73
2019-03-27T08:53:38.957Z,10.20
2019-03-27T08:56:10.896Z,8.50
2019-03-27T08:58:43.112Z,8.37
2019-03-27T09:01:15.310Z,9.80
2019-03-27T09:03:47.172Z,10.77
2019-03-27T09:06:32.767Z,12.60
2019-03-27T09:08:52.689Z,12.00
2019-03-27T09:11:24.474Z,8.23
2019-03-27T09:13:57.178Z,7.96
2019-03-27T09:16:29.143Z,11.00
2019-03-27T09:19:01.468Z,7.53
2019-03-27T09:21:33.266Z,11.73
2019-03-27T09:24:06.275Z,6.55
2019-03-27T09:26:38.349Z,5.23
2019-03-27T09:29:10.567Z,7.83
2019-03-27T09:31:45.157Z,6.00
2019-03-27T09:34:17.775Z,4.73
2019-03-27T09:36:49.867Z,4.00
2019-03-27T09:39:21.743Z,4.60
2019-03-27T09:41:53.580Z,4.72
2019-03-27T09:44:25.492Z,5.23
2019-03-27T09:46:57.512Z,6.90
2019-03-27T09:49:29.931Z,5.97
2019-03-27T09:52:01.805Z,7.55
2019-03-27T09:54:33.740Z,5.90
2019-03-27T09:57:05.503Z,7.77
2019-03-27T09:59:37.348Z,5.83
2019-03-27T10:02:09.383Z,5.35
2019-03-27T10:04:41.621Z,6.23
2019-03-27T10:07:13.495Z,6.37
2019-03-27T10:09:45.430Z,5.77
2019-03-27T10:12:17.301Z,4.62
2019-03-27T10:14:50.144Z,5.00
2019-03-27T10:17:22.195Z,4.67
2019-03-27T10:20:03.262Z,6.12
2019-03-27T10:22:27.761Z,5.73
2019-03-27T10:24:59.639Z,6.78
2019-03-27T10:27:31.544Z,4.47
2019-03-27T10:30:03.513Z,7.00
2019-03-27T10:32:35.781Z,5.60
2019-03-27T10:35:08.132Z,5.97
2019-03-27T10:37:40.009Z,9.17
2019-03-27T10:40:12.106Z,6.78
2019-03-27T10:42:43.879Z,6.40
2019-03-27T10:45:16.330Z,6.83
2019-03-27T10:47:48.179Z,5.97
2019-03-27T10:50:20.114Z,5.87
2019-03-27T10:52:52.036Z,8.37
2019-03-27T10:55:24.044Z,6.47
2019-03-27T10:57:55.921Z,5.95
2019-03-27T11:00:27.901Z,6.27
2019-03-27T11:03:00.007Z,5.28
2019-03-27T11:05:32.038Z,4.12
2019-03-27T11:08:04.342Z,5.97
2019-03-27T11:10:36.268Z,3.83
2019-03-27T11:13:08.127Z,5.25
2019-03-27T11:15:40.206Z,2.97
2019-03-27T11:18:12.124Z,4.83
2019-03-27T11:20:44.039Z,5.43
2019-03-27T11:23:15.932Z,5.77
2019-03-27T11:25:47.698Z,6.40
2019-03-27T11:28:19.555Z,4.33
2019-03-27T11:30:51.332Z,6.20
2019-03-27T11:33:23.266Z,3.67
2019-03-27T11:35:55.111Z,5.65
2019-03-27T11:38:27.676Z,5.30
2019-03-27T11:40:59.695Z,8.20
2019-03-27T11:43:31.707Z,3.50
2019-03-27T11:46:03.628Z,3.97
2019-03-27T11:48:35.612Z,3.62
2019-03-27T11:51:07.637Z,5.83
2019-03-27T11:53:39.426Z,4.37
2019-03-27T11:56:11.422Z,4.23
2019-03-27T11:58:43.455Z,5.80
2019-03-27T12:01:15.308Z,4.05
2019-03-27T12:03:47.576Z,5.90
2019-03-27T12:06:19.433Z,7.10
2019-03-27T12:08:51.389Z,3.90
2019-03-27T12:11:23.307Z,5.17
2019-03-27T12:13:55.194Z,5.50
2019-03-27T12:16:27.901Z,5.00
2019-03-27T12:18:59.773Z,6.00
2019-03-27T12:21:31.704Z,4.47
2019-03-27T12:24:03.628Z,6.17
2019-03-27T12:26:35.635Z,5.67
2019-03-27T12:29:08.093Z,4.55
2019-03-27T12:31:40.437Z,5.53
2019-03-27T12:34:12.832Z,5.62
2019-03-27T12:36:44.777Z,6.05
2019-03-27T12:39:16.961Z,6.87
2019-03-27T12:41:49.214Z,4.93
2019-03-27T12:44:21.107Z,4.67
2019-03-27T12:46:52.973Z,5.97
2019-03-27T12:49:25.131Z,5.40
2019-03-27T12:51:57.951Z,5.22
2019-03-27T12:54:30.134Z,4.47
2019-03-27T12:57:02.081Z,3.92
2019-03-27T12:59:34.028Z,5.80
2019-03-27T13:02:06.598Z,4.70
2019-03-27T13:04:38.676Z,3.60
2019-03-27T13:07:10.603Z,5.35
2019-03-27T13:09:42.543Z,5.53
2019-03-27T13:12:14.344Z,4.40
2019-03-27T13:14:46.281Z,4.73
2019-03-27T13:17:18.118Z,5.87
2019-03-27T13:19:50.117Z,7.10
2019-03-27T13:22:22.300Z,5.37
2019-03-27T13:24:54.167Z,5.03
2019-03-27T13:27:26.159Z,3.17
2019-03-27T13:29:58.923Z,5.10
2019-03-27T13:32:30.745Z,4.60
2019-03-27T13:35:03.127Z,6.97
2019-03-27T13:37:35.351Z,2.43
2019-03-27T13:40:08.550Z,3.50
2019-03-27T13:42:40.398Z,3.73
2019-03-27T13:45:14.012Z,3.17
2019-03-27T13:47:45.852Z,2.55
2019-03-27T13:50:18.513Z,3.67
2019-03-27T13:52:50.378Z,3.30
2019-03-27T13:55:22.370Z,3.40
2019-03-27T13:57:54.351Z,4.33
2019-03-27T14:00:26.358Z,4.47
2019-03-27T14:02:58.238Z,4.08
2019-03-27T14:05:30.203Z,1.77
2019-03-27T14:08:02.060Z,4.30
2019-03-27T14:10:34.371Z,3.33
2019-03-27T14:13:06.377Z,4.03
2019-03-27T14:15:38.368Z,3.10
2019-03-27T14:18:10.859Z,3.33
2019-03-27T14:20:42.751Z,2.70
2019-03-27T14:23:14.578Z,3.72
2019-03-27T14:25:46.402Z,2.67
2019-03-27T14:28:18.340Z,3.57
2019-03-27T14:30:59.056Z,2.67
2019-03-27T14:33:30.901Z,5.37
2019-03-27T14:36:02.980Z,2.62
2019-03-27T14:38:35.224Z,5.17
2019-03-27T14:41:07.244Z,2.93
2019-03-27T14:43:39.281Z,3.50
2019-03-27T14:46:11.241Z,2.93
2019-03-27T14:48:43.341Z,2.33
2019-03-27T14:51:15.276Z,2.10
2019-03-27T14:53:47.072Z,3.00
2019-03-27T14:56:18.876Z,2.37
2019-03-27T14:58:50.766Z,1.60
2019-03-27T15:01:23.102Z,2.20
2019-03-27T15:03:55.152Z,4.13
2019-03-27T15:06:28.153Z,3.98
2019-03-27T15:09:00.280Z,2.03
2019-03-27T15:11:32.110Z,2.65
2019-03-27T15:14:04.085Z,3.07
2019-03-27T15:16:36.334Z,2.77
2019-03-27T15:19:08.395Z,3.58
2019-03-27T15:21:40.186Z,2.97
2019-03-27T15:24:12.387Z,1.07
2019-03-27T15:26:44.175Z,2.00
2019-03-27T15:29:16.246Z,2.05
2019-03-27T15:31:49.312Z,5.67
2019-03-27T15:34:21.111Z,2.23
2019-03-27T15:36:53.630Z,2.83
2019-03-27T15:39:25.427Z,2.93
2019-03-27T15:41:58.167Z,1.12
2019-03-27T15:44:29.963Z,1.80
2019-03-27T15:47:01.858Z,3.83
2019-03-27T15:49:33.760Z,2.93
2019-03-27T15:52:05.657Z,2.23
2019-03-27T15:54:37.494Z,2.30
2019-03-27T15:57:09.295Z,3.50
2019-03-27T15:59:41.640Z,1.77
2019-03-27T16:02:13.689Z,1.60
2019-03-27T16:04:45.669Z,2.37
2019-03-27T16:07:17.595Z,2.57
2019-03-27T16:09:49.449Z,3.37
2019-03-27T16:12:21.552Z,1.65
2019-03-27T16:14:54.021Z,1.97
2019-03-27T16:17:25.980Z,2.90
2019-03-27T16:19:58.243Z,3.25
2019-03-27T16:22:30.162Z,3.93
2019-03-27T16:25:01.999Z,3.95
2019-03-27T16:27:33.845Z,2.07
2019-03-27T16:30:05.854Z,1.73
2019-03-27T16:32:37.728Z,1.67
2019-03-27T16:35:10.275Z,3.47
2019-03-27T16:37:42.148Z,1.83
2019-03-27T16:40:15.551Z,1.80
2019-03-27T16:42:47.600Z,2.20
2019-03-27T16:45:20.095Z,0.83
2019-03-27T16:47:51.925Z,5.80
2019-03-27T16:50:23.943Z,3.97
2019-03-27T16:53:03.379Z,1.20
2019-03-27T16:55:30.656Z,1.27
2019-03-27T16:58:02.983Z,2.50
2019-03-27T17:00:34.999Z,2.10
2019-03-27T17:03:07.321Z,1.73
2019-03-27T17:05:53.920Z,2.30
2019-03-27T17:08:22.338Z,2.73
2019-03-27T17:10:54.923Z,2.77
2019-03-27T17:13:27.148Z,1.57
2019-03-27T17:15:59.113Z,0.60
2019-03-27T17:18:31.012Z,2.57
2019-03-27T17:21:03.366Z,3.55
2019-03-27T17:23:35.568Z,2.30
2019-03-27T17:26:07.573Z,2.73
2019-03-27T17:28:39.646Z,2.37
2019-03-27T17:31:11.592Z,0.90
2019-03-27T17:33:44.027Z,1.43
2019-03-27T17:36:15.937Z,1.87
2019-03-27T17:38:48.030Z,1.30
2019-03-27T17:41:19.926Z,3.00
2019-03-27T17:43:51.778Z,2.27
2019-03-27T17:46:24.090Z,2.72
2019-03-27T17:48:56.881Z,0.97
2019-03-27T17:51:28.656Z,1.40
2019-03-27T17:54:00.653Z,1.37
2019-03-27T17:56:32.751Z,1.60
2019-03-27T17:59:05.003Z,2.00
2019-03-27T18:01:36.878Z,1.10
2019-03-27T18:04:11.041Z,1.60
2019-03-27T18:06:43.852Z,1.87
2019-03-27T18:09:15.791Z,0.95
2019-03-27T18:11:47.639Z,3.67
2019-03-27T18:14:20.130Z,1.60
2019-03-27T18:16:51.916Z,1.20
2019-03-27T18:19:23.709Z,1.27
2019-03-27T18:22:07.195Z,1.67
2019-03-27T18:24:29.508Z,1.97
2019-03-27T18:27:01.569Z,1.27
2019-03-27T18:29:33.373Z,2.67
2019-03-27T18:32:05.559Z,0.63
2019-03-27T18:34:37.433Z,4.43
2019-03-27T18:37:09.272Z,0.80
2019-03-27T18:39:41.095Z,1.40
2019-03-27T18:42:13.351Z,2.07
2019-03-27T18:44:45.476Z,1.35
2019-03-27T18:47:17.288Z,1.73
2019-03-27T18:49:49.071Z,1.10
2019-03-27T18:52:20.959Z,1.10
2019-03-27T18:54:52.850Z,1.32
2019-03-27T18:57:24.658Z,2.30
2019-03-27T18:59:56.566Z,1.87
2019-03-27T19:02:29.280Z,2.40
2019-03-27T19:05:01.068Z,2.70
2019-03-27T19:07:33.294Z,1.98
2019-03-27T19:10:07.087Z,1.37
2019-03-27T19:12:38.903Z,1.50
2019-03-27T19:15:11.773Z,1.53
2019-03-27T19:17:43.847Z,1.70
2019-03-27T19:20:15.942Z,1.85
2019-03-27T19:22:48.041Z,3.57
2019-03-27T19:25:19.924Z,2.33
2019-03-27T19:27:51.867Z,2.80
2019-03-27T19:30:24.332Z,2.23
2019-03-27T19:32:56.606Z,2.20
2019-03-27T19:35:29.128Z,1.67
2019-03-27T19:38:01.506Z,2.87
2019-03-27T19:40:33.675Z,2.95
2019-03-27T19:43:05.572Z,3.20
2019-03-27T19:45:38.650Z,1.32
2019-03-27T19:48:10.466Z,2.50
2019-03-27T19:50:42.253Z,2.17
2019-03-27T19:53:14.077Z,1.90
2019-03-27T19:55:46.412Z,1.47
2019-03-27T19:58:18.241Z,3.33
2019-03-27T20:00:51.065Z,2.65
2019-03-27T20:03:23.087Z,1.47
2019-03-27T20:05:54.904Z,2.47
2019-03-27T20:08:26.895Z,2.70
2019-03-27T20:10:59.091Z,2.35
2019-03-27T20:13:31.180Z,3.73
2019-03-27T20:16:03.050Z,2.35
2019-03-27T20:18:35.309Z,2.70
2019-03-27T20:21:07.252Z,1.87
2019-03-27T20:23:39.139Z,2.30
2019-03-27T20:26:10.911Z,2.13
2019-03-27T20:28:43.855Z,1.60
2019-03-27T20:31:15.639Z,2.93
2019-03-27T20:33:47.488Z,1.70
2019-03-27T20:36:19.577Z,3.20
2019-03-27T20:38:51.431Z,2.47
2019-03-27T20:41:23.279Z,3.33
2019-03-27T20:43:55.444Z,3.20
2019-03-27T20:46:29.241Z,2.98
2019-03-27T20:49:00.788Z,1.77
2019-03-27T20:51:32.579Z,4.07
2019-03-27T20:54:04.495Z,3.73
2019-03-27T20:56:36.339Z,3.30
2019-03-27T20:59:08.162Z,3.80
2019-03-27T21:01:40.352Z,3.22
2019-03-27T21:04:12.795Z,3.87
2019-03-27T21:06:44.574Z,4.43
2019-03-27T21:09:16.372Z,3.55
2019-03-27T21:11:48.236Z,2.67
2019-03-27T21:14:20.142Z,4.37
2019-03-27T21:16:51.913Z,3.97
2019-03-27T21:19:24.241Z,2.67
2019-03-27T21:21:56.206Z,3.47
2019-03-27T21:24:28.018Z,1.63
2019-03-27T21:27:00.190Z,2.30
2019-03-27T21:29:32.032Z,1.83
2019-03-27T21:32:03.822Z,3.52
2019-03-27T21:34:35.717Z,1.77
2019-03-27T21:37:07.565Z,6.12
2019-03-27T21:39:39.433Z,2.80
2019-03-27T21:42:11.356Z,4.83
2019-03-27T21:44:43.160Z,4.50
2019-03-27T21:47:15.007Z,2.20
2019-03-27T21:49:46.834Z,1.80
2019-03-27T21:52:18.916Z,1.50
2019-03-27T21:54:50.710Z,2.27
2019-03-27T21:57:22.478Z,4.47
2019-03-27T21:59:54.565Z,3.50
2019-03-27T22:02:26.417Z,4.20
2019-03-27T22:04:58.303Z,3.47
2019-03-27T22:07:30.179Z,5.73
2019-03-27T22:10:01.988Z,1.93
2019-03-27T22:12:33.840Z,2.40
2019-03-27T22:15:07.253Z,4.00
2019-03-27T22:17:39.299Z,2.75
2019-03-27T22:20:11.282Z,2.53
2019-03-27T22:22:43.165Z,4.23
2019-03-27T22:25:15.117Z,3.80
2019-03-27T22:27:46.949Z,4.40
2019-03-27T22:30:19.061Z,3.77
2019-03-27T22:32:50.907Z,3.47
2019-03-27T22:35:22.805Z,3.43
2019-03-27T22:37:54.585Z,2.70
2019-03-27T22:40:26.402Z,3.20
2019-03-27T22:42:58.840Z,1.98
2019-03-27T22:45:30.873Z,3.77
2019-03-27T22:48:02.682Z,1.63
2019-03-27T22:50:34.554Z,2.87
2019-03-27T22:53:06.712Z,1.70
2019-03-27T22:55:49.059Z,2.10
2019-03-27T22:58:13.123Z,2.73
2019-03-27T23:00:48.710Z,2.33
2019-03-27T23:03:20.656Z,1.40
2019-03-27T23:05:52.784Z,1.77
2019-03-27T23:08:24.556Z,3.57
2019-03-27T23:10:56.447Z,4.87
2019-03-27T23:13:28.902Z,2.93
2019-03-27T23:16:00.813Z,1.70
2019-03-27T23:18:32.897Z,1.97
2019-03-27T23:21:04.876Z,2.22
2019-03-27T23:23:36.650Z,2.30
2019-03-27T23:26:08.576Z,1.87
2019-03-27T23:28:40.373Z,3.77
2019-03-27T23:31:13.312Z,1.82
2019-03-27T23:33:45.248Z,1.20
2019-03-27T23:36:17.247Z,1.37
2019-03-27T23:38:49.438Z,2.03
2019-03-27T23:41:28.033Z,3.77
2019-03-27T23:44:01.058Z,1.66
2019-03-27T23:46:32.837Z,1.70
2019-03-27T23:49:05.147Z,2.58
2019-03-27T23:51:36.945Z,4.27
2019-03-27T23:54:08.720Z,1.67
2019-03-27T23:56:40.871Z,2.27
2019-03-27T23:59:12.727Z,1.97
